Time;durP1;ratioP1;P1;durP2;ratioP2;P2;SDS_P1;SDS_P2;PMS_P1;PMS_P2;Temp;Humidity;BMP_temperature;BMP_pressure;BME280_temperature;BME280_humidity;BME280_pressure;Samples;Min_cycle;Max_cycle;Signal;HPM_P1;HPM_P2
2023/08/28 00:00:27;;;;;;;8.55;4.10;;;;;;;12.48;100.00;93573.22;4972485;28;20105;-59
2023/08/28 00:02:54;;;;;;;6.60;3.70;;;;;;;12.58;100.00;93566.63;4990530;28;20039;-60
2023/08/28 00:05:21;;;;;;;6.72;3.47;;;;;;;12.64;100.00;93569.63;4980802;28;20281;-59
2023/08/28 00:07:49;;;;;;;6.32;3.38;;;;;;;12.71;100.00;93574.91;4990307;28;20044;-60
2023/08/28 00:10:16;;;;;;;5.68;3.63;;;;;;;12.75;100.00;93578.34;4989358;28;20042;-60
2023/08/28 00:12:43;;;;;;;4.82;3.20;;;;;;;12.74;100.00;93584.31;4990282;28;20046;-59
2023/08/28 00:15:11;;;;;;;6.00;2.43;;;;;;;12.68;100.00;93580.53;4989414;28;20505;-60
2023/08/28 00:17:38;;;;;;;4.07;2.80;;;;;;;12.66;100.00;93585.72;4989984;28;20092;-59
2023/08/28 00:21:16;;;;;;;5.80;2.88;;;;;;;12.63;100.00;93592.84;5088677;27;20451;-61
2023/08/28 00:23:43;;;;;;;4.22;2.70;;;;;;;12.62;100.00;93585.81;5085603;28;20043;-61
2023/08/28 00:26:09;;;;;;;8.02;5.05;;;;;;;12.70;100.00;93578.13;5085215;28;20044;-61
2023/08/28 00:28:36;;;;;;;5.70;3.80;;;;;;;12.64;100.00;93561.38;5070528;28;20037;-61
2023/08/28 00:31:04;;;;;;;4.30;3.00;;;;;;;12.63;100.00;93556.28;5085342;28;20534;-61
2023/08/28 00:33:30;;;;;;;5.05;2.72;;;;;;;12.58;100.00;93560.38;5096525;28;20399;-61
2023/08/28 00:35:57;;;;;;;5.03;2.70;;;;;;;12.55;100.00;93555.72;5106066;28;20046;-61
2023/08/28 00:38:24;;;;;;;4.32;2.50;;;;;;;12.56;100.00;93552.53;5105260;28;20051;-61
2023/08/28 00:40:50;;;;;;;4.47;2.40;;;;;;;12.59;100.00;93550.88;5105644;28;20656;-63
2023/08/28 00:43:17;;;;;;;4.30;2.42;;;;;;;12.53;100.00;93547.91;5105139;28;20403;-60
2023/08/28 00:45:44;;;;;;;4.95;2.72;;;;;;;12.55;100.00;93559.25;5105307;28;20040;-61
2023/08/28 00:48:14;;;;;;;5.93;2.80;;;;;;;12.57;100.00;93564.31;5104566;28;20048;-61
2023/08/28 00:50:41;;;;;;;4.72;2.72;;;;;;;12.60;100.00;93571.72;5105915;28;20048;-61
2023/08/28 00:53:11;;;;;;;3.80;2.57;;;;;;;12.64;100.00;93571.63;5104417;28;20054;-62
2023/08/28 00:55:40;;;;;;;5.00;2.88;;;;;;;12.64;100.00;93579.88;5105681;28;20044;-61
2023/08/28 00:58:06;;;;;;;3.90;2.30;;;;;;;12.67;100.00;93582.50;5103953;28;20505;-61
2023/08/28 01:00:33;;;;;;;4.95;2.60;;;;;;;12.64;100.00;93591.66;5083792;28;20489;-61
2023/08/28 01:03:00;;;;;;;6.28;2.60;;;;;;;12.62;100.00;93593.31;5083482;28;20450;-61
2023/08/28 01:05:50;;;;;;;4.60;2.43;;;;;;;12.58;100.00;93587.91;5084787;28;20048;-61
2023/08/28 01:08:33;;;;;;;5.18;2.80;;;;;;;12.58;100.00;93585.91;5084528;28;20040;-61
2023/08/28 01:11:24;;;;;;;4.80;2.40;;;;;;;12.62;100.00;93574.81;5085195;28;20062;-60
2023/08/28 01:13:56;;;;;;;4.32;2.50;;;;;;;12.64;100.00;93579.88;5078248;28;20582;-61
2023/08/28 01:16:27;;;;;;;5.90;2.80;;;;;;;12.64;100.00;93574.38;5084189;28;20044;-60
2023/08/28 01:18:54;;;;;;;4.20;2.80;;;;;;;12.66;100.00;93580.97;5084904;28;20036;-61
2023/08/28 01:21:21;;;;;;;5.18;3.03;;;;;;;12.64;100.00;93564.13;5104228;28;20047;-60
2023/08/28 01:24:11;;;;;;;4.78;3.20;;;;;;;12.46;100.00;93556.38;5091621;28;20047;-60
2023/08/28 01:26:37;;;;;;;6.82;3.85;;;;;;;12.16;100.00;93552.09;5103982;28;20134;-60
2023/08/28 01:29:04;;;;;;;5.25;3.35;;;;;;;12.29;100.00;93550.16;5084965;28;20045;-62
2023/08/28 01:31:31;;;;;;;6.33;3.50;;;;;;;12.26;100.00;93545.53;5077006;28;20054;-61
2023/08/28 01:33:57;;;;;;;6.95;3.30;;;;;;;12.28;100.00;93537.59;5053460;28;20044;-60
2023/08/28 01:36:45;;;;;;;5.45;3.90;;;;;;;12.21;100.00;93545.28;5070015;28;20044;-60
2023/08/28 01:39:22;;;;;;;6.07;3.42;;;;;;;12.24;100.00;93536.94;5069969;28;20063;-60
2023/08/28 01:41:52;;;;;;;6.95;3.60;;;;;;;12.33;100.00;93534.31;5071019;28;20477;-59
2023/08/28 01:44:21;;;;;;;6.27;3.60;;;;;;;12.43;100.00;93518.69;5069973;28;20051;-60
2023/08/28 01:46:49;;;;;;;5.53;3.30;;;;;;;12.44;100.00;93503.75;5078081;28;20044;-60
2023/08/28 01:49:15;;;;;;;6.68;3.30;;;;;;;12.51;100.00;93511.00;5089375;28;20475;-61
2023/08/28 01:51:42;;;;;;;7.72;3.70;;;;;;;12.48;100.00;93501.66;5090408;28;20039;-60
2023/08/28 01:54:09;;;;;;;5.53;3.72;;;;;;;12.44;100.00;93497.47;5068567;28;20045;-59
2023/08/28 01:56:36;;;;;;;8.30;4.10;;;;;;;12.41;100.00;93490.09;5070268;28;20048;-59
2023/08/28 01:59:02;;;;;;;7.75;3.95;;;;;;;12.45;100.00;93496.25;5069085;28;20047;-60
2023/08/28 02:01:29;;;;;;;6.95;4.53;;;;;;;12.34;100.00;93489.09;5059866;28;22037;-59
2023/08/28 02:03:57;;;;;;;7.78;3.65;;;;;;;12.36;100.00;93485.91;5056554;28;20044;-60
2023/08/28 02:06:23;;;;;;;6.10;4.28;;;;;;;12.26;100.00;93473.22;5069470;28;20040;-59
2023/08/28 02:08:50;;;;;;;6.13;4.10;;;;;;;12.31;100.00;93472.66;5052583;28;20093;-59
2023/08/28 02:11:17;;;;;;;7.95;4.40;;;;;;;12.18;100.00;93473.41;5096960;28;20054;-60
2023/08/28 02:13:44;;;;;;;7.32;4.38;;;;;;;12.09;100.00;93473.31;5110489;28;20039;-60
2023/08/28 02:16:10;;;;;;;5.95;3.95;;;;;;;12.18;100.00;93480.91;5109992;28;20050;-60
2023/08/28 02:18:37;;;;;;;6.13;4.10;;;;;;;12.27;100.00;93470.03;5109695;28;20044;-59
2023/08/28 02:21:04;;;;;;;7.73;3.90;;;;;;;12.22;100.00;93461.56;5109789;28;20104;-60
2023/08/28 02:23:32;;;;;;;6.07;3.60;;;;;;;12.09;100.00;93467.00;5110707;28;20040;-59
2023/08/28 02:25:59;;;;;;;7.85;4.00;;;;;;;12.10;100.00;93468.56;5110998;28;20488;-59
2023/08/28 02:28:26;;;;;;;6.38;3.72;;;;;;;12.18;100.00;93467.91;5097788;28;20914;-60
2023/08/28 02:30:52;;;;;;;8.00;3.65;;;;;;;12.22;100.00;93458.81;5110440;28;20052;-60
2023/08/28 02:33:19;;;;;;;6.17;3.73;;;;;;;12.23;100.00;93463.09;5109665;28;20095;-60
2023/08/28 02:35:46;;;;;;;6.18;3.75;;;;;;;12.22;100.00;93465.06;5110010;28;20042;-60
2023/08/28 02:38:12;;;;;;;6.45;3.40;;;;;;;12.26;100.00;93473.22;5109871;28;20048;-59
2023/08/28 02:40:39;;;;;;;4.95;3.28;;;;;;;12.16;100.00;93470.34;5109747;28;20065;-60
2023/08/28 02:43:07;;;;;;;4.82;2.80;;;;;;;12.03;100.00;93457.75;5108459;28;20039;-61
2023/08/28 02:45:35;;;;;;;4.10;2.23;;;;;;;12.15;100.00;93448.75;5109959;28;20512;-60
2023/08/28 02:48:03;;;;;;;3.45;1.92;;;;;;;12.18;100.00;93428.66;5110227;28;20555;-60
2023/08/28 02:50:34;;;;;;;3.70;1.90;;;;;;;12.26;100.00;93431.97;5108850;28;20048;-60
2023/08/28 02:53:03;;;;;;;5.55;2.15;;;;;;;12.24;100.00;93434.38;5110023;28;20051;-60
2023/08/28 02:55:38;;;;;;;3.88;2.40;;;;;;;12.17;100.00;93438.09;5088240;28;21723;-60
2023/08/28 02:58:05;;;;;;;5.90;2.33;;;;;;;12.14;100.00;93428.75;5089114;28;20051;-59
2023/08/28 03:00:33;;;;;;;5.10;3.25;;;;;;;11.95;100.00;93432.44;5089167;28;20052;-59
2023/08/28 03:03:00;;;;;;;5.20;3.17;;;;;;;11.79;100.00;93439.53;5089834;28;20048;-60
2023/08/28 03:05:28;;;;;;;4.88;2.85;;;;;;;11.85;100.00;93439.78;5088806;28;20036;-60
2023/08/28 03:07:55;;;;;;;5.25;3.05;;;;;;;12.03;100.00;93444.00;5089137;28;20101;-59
2023/08/28 03:10:22;;;;;;;6.70;3.33;;;;;;;12.06;100.00;93432.16;5088000;28;20040;-60
2023/08/28 03:12:49;;;;;;;6.43;3.22;;;;;;;12.13;100.00;93431.94;5089319;28;20407;-60
2023/08/28 03:15:16;;;;;;;5.88;3.17;;;;;;;11.97;100.00;93432.75;5088110;28;20496;-60
2023/08/28 03:17:42;;;;;;;5.15;3.03;;;;;;;11.91;100.00;93435.31;5089099;28;20050;-60
2023/08/28 03:20:10;;;;;;;5.88;3.33;;;;;;;11.74;100.00;93434.53;5069647;28;20044;-59
2023/08/28 03:22:36;;;;;;;5.97;2.80;;;;;;;11.83;100.00;93442.19;5088649;28;20047;-59
2023/08/28 03:25:04;;;;;;;7.43;3.08;;;;;;;11.89;100.00;93436.94;5088837;28;20044;-60
2023/08/28 03:27:32;;;;;;;5.63;3.15;;;;;;;11.76;100.00;93434.88;5093615;28;20841;-60
2023/08/28 03:29:58;;;;;;;6.40;3.20;;;;;;;11.96;100.00;93439.50;5075736;28;20044;-60
2023/08/28 03:32:25;;;;;;;4.55;2.90;;;;;;;12.03;100.00;93435.75;5088269;28;20636;-61
2023/08/28 03:34:53;;;;;;;5.30;3.10;;;;;;;12.05;100.00;93433.34;5088737;28;20036;-61
2023/08/28 03:37:20;;;;;;;5.97;2.75;;;;;;;11.88;100.00;93432.63;5088116;28;20346;-60
2023/08/28 03:39:46;;;;;;;7.45;3.25;;;;;;;11.78;100.00;93432.47;5088355;28;20044;-60
2023/08/28 03:42:13;;;;;;;4.65;2.78;;;;;;;11.70;100.00;93427.63;5087978;28;20044;-60
2023/08/28 03:44:40;;;;;;;4.68;2.88;;;;;;;11.78;100.00;93417.97;5079359;28;20396;-60
2023/08/28 03:47:07;;;;;;;5.10;3.10;;;;;;;11.78;100.00;93410.47;5067035;28;20059;-61
2023/08/28 03:49:33;;;;;;;12.52;2.90;;;;;;;11.83;100.00;93411.16;5068670;28;20044;-61
2023/08/28 03:52:00;;;;;;;6.70;3.10;;;;;;;11.86;100.00;93411.06;5069897;28;20051;-60
2023/08/28 03:54:27;;;;;;;6.03;2.92;;;;;;;11.89;100.00;93421.22;5087778;28;20046;-60
2023/08/28 03:56:54;;;;;;;5.93;3.30;;;;;;;11.60;100.00;93412.94;5088589;28;20043;-60
2023/08/28 03:59:22;;;;;;;8.43;3.47;;;;;;;11.43;100.00;93425.97;5087617;28;20044;-60
2023/08/28 04:01:49;;;;;;;4.82;2.90;;;;;;;11.53;100.00;93427.66;5087945;28;20101;-61
2023/08/28 04:04:16;;;;;;;5.40;3.20;;;;;;;11.67;100.00;93399.03;5087754;28;20044;-60
2023/08/28 04:06:43;;;;;;;6.28;3.05;;;;;;;11.82;100.00;93404.88;5088355;28;20040;-60
2023/08/28 04:09:10;;;;;;;5.28;3.20;;;;;;;11.71;100.00;93401.66;5087467;28;20062;-60
2023/08/28 04:11:37;;;;;;;5.03;2.90;;;;;;;11.80;100.00;93404.56;5088115;28;20415;-60
2023/08/28 04:14:03;;;;;;;4.70;2.58;;;;;;;11.87;100.00;93392.56;5088013;28;20044;-60
2023/08/28 04:16:30;;;;;;;3.83;2.33;;;;;;;11.75;100.00;93385.81;5095478;28;20697;-60
2023/08/28 04:18:57;;;;;;;4.40;2.80;;;;;;;11.71;100.00;93391.44;5107833;28;20046;-60
2023/08/28 04:21:24;;;;;;;5.20;2.95;;;;;;;11.77;100.00;93399.91;5107379;28;20046;-60
2023/08/28 04:23:50;;;;;;;6.77;3.60;;;;;;;11.59;100.00;93405.94;5108247;28;20066;-60
2023/08/28 04:26:17;;;;;;;5.57;3.20;;;;;;;11.73;100.00;93412.97;5107720;28;20054;-61
2023/08/28 04:28:44;;;;;;;5.57;3.40;;;;;;;11.64;100.00;93415.59;5092308;28;20044;-60
2023/08/28 04:31:13;;;;;;;5.50;3.45;;;;;;;11.93;100.00;93418.34;5095526;28;20047;-60
2023/08/28 04:33:40;;;;;;;5.30;3.47;;;;;;;11.98;100.00;93426.06;5090685;28;20050;-61
2023/08/28 04:36:07;;;;;;;9.17;3.30;;;;;;;11.79;100.00;93425.78;5108035;28;20047;-61
2023/08/28 04:38:33;;;;;;;5.72;3.05;;;;;;;11.91;100.00;93437.25;5094502;28;20036;-60
2023/08/28 04:41:00;;;;;;;5.55;3.20;;;;;;;12.01;100.00;93430.69;5108449;28;20044;-60
2023/08/28 04:43:27;;;;;;;7.20;2.90;;;;;;;12.12;100.00;93422.16;5107632;28;20044;-61
2023/08/28 04:45:53;;;;;;;6.82;3.28;;;;;;;12.15;100.00;93419.28;5107650;28;20036;-61
2023/08/28 04:48:20;;;;;;;8.27;3.60;;;;;;;12.11;100.00;93418.63;5107767;28;20050;-61
2023/08/28 04:50:47;;;;;;;6.75;3.60;;;;;;;12.11;100.00;93421.38;5103239;28;20048;-61
2023/08/28 04:53:14;;;;;;;5.88;3.30;;;;;;;12.21;100.00;93413.25;5099240;28;20043;-60
2023/08/28 04:55:41;;;;;;;5.15;3.00;;;;;;;12.27;100.00;93419.72;5108034;28;20039;-61
2023/08/28 04:58:08;;;;;;;5.85;3.20;;;;;;;12.18;100.00;93418.41;5085821;28;20048;-60
2023/08/28 05:00:34;;;;;;;6.00;3.30;;;;;;;12.11;100.00;93424.13;5087433;28;20046;-60
2023/08/28 05:03:01;;;;;;;6.68;2.90;;;;;;;12.17;100.00;93427.09;5087682;28;20040;-60
2023/08/28 05:05:28;;;;;;;6.60;2.90;;;;;;;12.16;100.00;93415.31;5086671;28;20044;-60
2023/08/28 05:07:55;;;;;;;6.00;3.15;;;;;;;12.18;100.00;93426.66;5091447;28;20397;-60
2023/08/28 05:10:22;;;;;;;4.90;3.20;;;;;;;12.20;100.00;93431.72;5090679;28;20063;-61
2023/08/28 05:12:49;;;;;;;13.83;5.67;;;;;;;12.19;100.00;93439.22;5091677;28;20040;-61
2023/08/28 05:15:16;;;;;;;6.25;3.10;;;;;;;11.78;100.00;93439.94;5090121;28;20494;-61
2023/08/28 05:17:42;;;;;;;6.13;3.40;;;;;;;11.72;100.00;93438.94;5091473;28;20059;-61
2023/08/28 05:20:10;;;;;;;5.80;3.30;;;;;;;11.71;100.00;93429.94;5090260;28;20036;-60
2023/08/28 05:22:37;;;;;;;5.68;3.30;;;;;;;11.87;100.00;93431.06;5073194;28;20042;-61
2023/08/28 05:25:04;;;;;;;7.33;3.67;;;;;;;11.98;100.00;93428.81;5091270;28;20092;-60
2023/08/28 05:27:30;;;;;;;5.10;3.17;;;;;;;12.06;100.00;93426.66;5069743;28;20987;-61
2023/08/28 05:29:59;;;;;;;5.35;3.00;;;;;;;12.08;100.00;93426.97;5071164;28;20041;-61
2023/08/28 05:32:25;;;;;;;5.70;3.50;;;;;;;12.15;100.00;93410.25;5069932;28;20090;-61
2023/08/28 05:34:53;;;;;;;7.82;3.30;;;;;;;12.10;100.00;93397.06;5053310;28;20044;-61
2023/08/28 05:37:20;;;;;;;5.43;3.10;;;;;;;11.96;100.00;93392.75;5072492;28;20742;-60
2023/08/28 05:39:47;;;;;;;5.55;3.00;;;;;;;11.90;100.00;93376.00;5090735;28;20399;-60
2023/08/28 05:42:14;;;;;;;4.75;2.90;;;;;;;11.92;100.00;93359.06;5089748;28;20502;-60
2023/08/28 05:44:42;;;;;;;6.03;3.00;;;;;;;11.91;100.00;93349.28;5091158;28;20593;-61
2023/08/28 05:47:09;;;;;;;6.43;2.90;;;;;;;12.03;100.00;93353.25;5090031;28;20044;-61
2023/08/28 05:49:36;;;;;;;6.03;2.70;;;;;;;12.09;100.00;93335.78;5083568;28;20040;-61
2023/08/28 05:52:03;;;;;;;3.80;2.40;;;;;;;12.10;100.00;93320.81;5084501;28;20082;-60
2023/08/28 05:54:29;;;;;;;4.00;2.40;;;;;;;12.02;100.00;93313.22;5089628;28;20348;-60
2023/08/28 05:56:56;;;;;;;4.65;2.40;;;;;;;12.09;100.00;93315.75;5090573;28;20042;-60
2023/08/28 05:59:23;;;;;;;6.43;2.70;;;;;;;12.27;100.00;93328.94;5088988;28;20055;-60
2023/08/28 06:01:50;;;;;;;3.87;2.50;;;;;;;12.27;100.00;93343.47;5086135;28;20038;-60
2023/08/28 06:04:16;;;;;;;4.05;2.10;;;;;;;12.33;100.00;93347.19;5090119;28;20420;-60
2023/08/28 06:06:43;;;;;;;4.05;2.30;;;;;;;12.38;100.00;93343.16;5090294;28;20054;-60
2023/08/28 06:09:10;;;;;;;4.70;2.22;;;;;;;12.43;100.00;93339.81;5069777;28;20053;-60
2023/08/28 06:11:36;;;;;;;5.07;2.70;;;;;;;12.43;100.00;93339.06;5070154;28;20075;-61
2023/08/28 06:14:03;;;;;;;3.87;2.50;;;;;;;12.43;100.00;93326.06;5070040;28;20066;-60
2023/08/28 06:16:30;;;;;;;4.80;2.50;;;;;;;12.54;100.00;93334.00;5068942;28;20488;-60
2023/08/28 06:18:57;;;;;;;4.05;2.40;;;;;;;12.51;100.00;93340.38;5069934;28;20044;-61
2023/08/28 06:21:23;;;;;;;4.70;2.28;;;;;;;12.51;100.00;93340.38;5069084;28;20041;-59
2023/08/28 06:23:50;;;;;;;4.20;2.20;;;;;;;12.47;100.00;93334.97;5070104;28;20154;-60
2023/08/28 06:26:17;;;;;;;4.77;2.10;;;;;;;12.42;100.00;93323.78;5051327;28;20408;-60
2023/08/28 06:28:43;;;;;;;3.50;2.20;;;;;;;12.49;100.00;93334.53;5069615;28;20055;-62
2023/08/28 06:31:11;;;;;;;4.78;2.50;;;;;;;12.42;100.00;93321.78;5069342;28;20055;-60
2023/08/28 06:33:38;;;;;;;4.00;2.30;;;;;;;12.54;100.00;93323.75;5069518;28;20045;-60
2023/08/28 06:36:04;;;;;;;3.38;2.00;;;;;;;12.38;100.00;93332.16;5061225;28;20047;-60
2023/08/28 06:38:31;;;;;;;3.77;2.33;;;;;;;12.41;100.00;93350.50;5089426;28;20044;-60
2023/08/28 06:41:00;;;;;;;6.00;2.30;;;;;;;12.52;100.00;93350.94;5089721;28;20073;-61
2023/08/28 06:43:29;;;;;;;4.05;2.10;;;;;;;12.66;100.00;93319.44;5086588;28;20389;-62
2023/08/28 06:45:55;;;;;;;4.28;2.40;;;;;;;12.65;100.00;93312.38;5075551;28;20032;-61
2023/08/28 06:48:22;;;;;;;5.32;2.90;;;;;;;12.43;100.00;93323.31;5077062;28;20713;-62
2023/08/28 06:50:51;;;;;;;4.93;2.80;;;;;;;12.33;100.00;93338.19;5088585;28;20036;-62
2023/08/28 06:53:18;;;;;;;4.88;2.67;;;;;;;12.63;100.00;93344.34;5070547;28;20040;-61
2023/08/28 06:55:44;;;;;;;6.22;2.80;;;;;;;12.71;100.00;93353.91;5084146;28;20554;-61
2023/08/28 06:58:11;;;;;;;5.50;2.60;;;;;;;12.79;100.00;93352.44;5088652;28;20260;-61
2023/08/28 07:00:38;;;;;;;4.22;2.05;;;;;;;12.86;100.00;93332.94;5089133;28;20040;-61
2023/08/28 07:03:04;;;;;;;3.17;1.80;;;;;;;12.95;100.00;93308.22;5076533;28;20051;-61
2023/08/28 07:05:32;;;;;;;5.35;2.20;;;;;;;13.23;100.00;93315.97;5087950;28;20046;-61
2023/08/28 07:07:58;;;;;;;4.05;1.85;;;;;;;13.24;100.00;93317.50;5079063;28;20408;-61
2023/08/28 07:10:25;;;;;;;5.60;2.10;;;;;;;13.03;100.00;93310.75;5068708;28;20048;-60
2023/08/28 07:12:52;;;;;;;5.05;1.95;;;;;;;12.98;100.00;93287.31;5069153;28;20049;-60
2023/08/28 07:15:19;;;;;;;5.60;2.20;;;;;;;13.00;100.00;93298.66;5068609;28;20055;-61
2023/08/28 07:17:46;;;;;;;3.88;1.95;;;;;;;12.89;100.00;93307.25;5069371;28;20033;-61
2023/08/28 07:20:13;;;;;;;4.63;2.10;;;;;;;13.19;100.00;93318.84;5050348;28;20057;-61
2023/08/28 07:22:40;;;;;;;3.70;2.10;;;;;;;13.42;100.00;93314.94;5069245;28;20048;-60
2023/08/28 07:25:08;;;;;;;3.88;2.10;;;;;;;13.71;100.00;93311.88;5068226;28;20048;-60
2023/08/28 07:27:35;;;;;;;4.00;2.10;;;;;;;13.60;100.00;93311.50;5068921;28;20111;-60
2023/08/28 07:30:05;;;;;;;3.60;2.05;;;;;;;13.18;100.00;93306.31;5068000;28;20439;-61
2023/08/28 07:32:33;;;;;;;4.45;2.10;;;;;;;13.45;100.00;93304.97;5067928;28;21779;-60
2023/08/28 07:35:00;;;;;;;3.80;2.20;;;;;;;13.46;100.00;93312.03;5068525;28;20041;-60
2023/08/28 07:37:30;;;;;;;3.97;1.98;;;;;;;13.72;100.00;93307.91;5067760;28;20067;-61
2023/08/28 07:39:57;;;;;;;3.87;1.97;;;;;;;13.84;100.00;93319.31;5068553;28;20033;-60
2023/08/28 07:42:24;;;;;;;4.70;2.03;;;;;;;13.86;100.00;93316.88;5067752;28;20044;-60
2023/08/28 07:44:51;;;;;;;4.55;2.20;;;;;;;13.74;100.00;93337.78;5068159;28;20044;-60
2023/08/28 07:47:18;;;;;;;3.67;2.00;;;;;;;13.88;100.00;93347.53;5067426;28;20049;-61
2023/08/28 07:49:45;;;;;;;6.95;2.30;;;;;;;13.65;100.00;93352.28;5077862;28;20401;-61
2023/08/28 07:52:12;;;;;;;5.10;1.90;;;;;;;13.73;100.00;93341.78;5088574;28;20052;-61
2023/08/28 07:54:39;;;;;;;3.75;1.88;;;;;;;13.71;100.00;93339.47;5089333;28;20042;-61
2023/08/28 07:57:06;;;;;;;4.20;2.03;;;;;;;13.63;100.00;93334.66;5070819;28;20050;-61
2023/08/28 07:59:33;;;;;;;6.03;2.10;;;;;;;13.56;100.00;93332.91;5083290;28;20507;-61
2023/08/28 08:01:59;;;;;;;5.35;2.28;;;;;;;13.52;100.00;93330.31;5089074;28;20526;-61
2023/08/28 08:04:26;;;;;;;4.13;1.90;;;;;;;13.92;100.00;93332.41;5088519;28;20050;-60
2023/08/28 08:06:53;;;;;;;4.85;2.08;;;;;;;14.12;100.00;93340.28;5088979;28;20040;-60
2023/08/28 08:09:20;;;;;;;4.20;1.90;;;;;;;14.17;100.00;93330.69;5088007;28;20403;-60
2023/08/28 08:11:46;;;;;;;4.25;2.00;;;;;;;14.07;100.00;93324.34;5089132;28;20165;-61
2023/08/28 08:14:13;;;;;;;4.65;2.20;;;;;;;14.21;100.00;93325.78;5088541;28;20054;-61
2023/08/28 08:16:40;;;;;;;3.90;2.00;;;;;;;14.50;100.00;93324.66;5089024;28;20043;-61
2023/08/28 08:19:06;;;;;;;5.00;2.10;;;;;;;15.04;100.00;93323.28;5070262;28;20493;-61
2023/08/28 08:21:33;;;;;;;4.63;1.73;;;;;;;15.47;100.00;93337.25;5070991;28;20050;-61
2023/08/28 08:24:00;;;;;;;5.35;2.10;;;;;;;14.58;100.00;93334.22;5089155;28;20048;-61
2023/08/28 08:26:28;;;;;;;5.63;2.00;;;;;;;15.41;100.00;93336.34;5070500;28;20048;-61
2023/08/28 08:28:55;;;;;;;4.43;1.90;;;;;;;14.64;100.00;93340.69;5081192;28;20040;-61
2023/08/28 08:31:21;;;;;;;4.47;3.15;;;;;;;14.96;100.00;93349.66;5070062;28;20046;-61
2023/08/28 08:33:48;;;;;;;4.25;2.20;;;;;;;14.93;100.00;93350.56;5088902;28;20377;-60
2023/08/28 08:36:16;;;;;;;4.75;2.10;;;;;;;14.80;100.00;93347.19;5086707;28;20055;-60
2023/08/28 08:38:43;;;;;;;3.38;2.13;;;;;;;15.04;100.00;93339.09;5085590;28;20408;-60
2023/08/28 08:41:10;;;;;;;6.43;2.50;;;;;;;15.08;100.00;93345.25;5088810;28;20480;-61
2023/08/28 08:43:37;;;;;;;5.75;2.22;;;;;;;15.35;100.00;93336.19;5092975;28;20043;-61
2023/08/28 08:46:05;;;;;;;5.07;2.38;;;;;;;14.71;100.00;93343.16;5092788;28;20415;-61
2023/08/28 08:48:34;;;;;;;5.93;2.38;;;;;;;14.93;100.00;93339.50;5073561;28;20744;-61
2023/08/28 08:51:06;;;;;;;4.65;2.90;;;;;;;14.51;100.00;93337.25;5071613;28;20524;-61
2023/08/28 08:53:56;;;;;;;3.67;2.10;;;;;;;14.54;100.00;93341.84;5058805;28;21534;-61
2023/08/28 08:56:23;;;;;;;3.58;2.22;;;;;;;14.30;100.00;93339.59;5073910;28;20048;-61
2023/08/28 08:58:51;;;;;;;4.95;2.20;;;;;;;14.22;100.00;93334.81;5092264;28;20407;-61
2023/08/28 09:01:19;;;;;;;3.97;2.47;;;;;;;13.56;100.00;93335.69;5091853;28;20512;-61
2023/08/28 09:03:47;;;;;;;4.95;2.38;;;;;;;14.32;100.00;93328.13;5092378;28;20100;-61
2023/08/28 09:06:15;;;;;;;4.80;2.43;;;;;;;14.60;100.00;93326.25;5091608;28;20044;-61
2023/08/28 09:08:42;;;;;;;3.88;2.30;;;;;;;14.37;100.00;93316.50;5092519;28;20047;-61
2023/08/28 09:11:09;;;;;;;3.72;2.30;;;;;;;14.67;100.00;93309.41;5076118;28;20617;-61
2023/08/28 09:13:38;;;;;;;4.30;2.30;;;;;;;14.38;100.00;93306.97;5084559;28;20040;-61
2023/08/28 09:16:04;;;;;;;3.97;2.25;;;;;;;14.67;100.00;93292.84;5091583;28;20522;-61
2023/08/28 09:18:31;;;;;;;4.30;2.17;;;;;;;14.78;100.00;93289.63;5091849;28;20040;-61
2023/08/28 09:21:12;;;;;;;4.32;2.40;;;;;;;14.57;100.00;93296.81;5091582;28;20046;-61
2023/08/28 09:23:43;;;;;;;5.07;2.40;;;;;;;14.48;100.00;93296.75;5070997;28;20555;-62
2023/08/28 09:26:19;;;;;;;4.18;2.33;;;;;;;14.09;100.00;93282.50;5075396;28;20054;-61
2023/08/28 09:29:06;;;;;;;4.03;2.50;;;;;;;14.16;100.00;93274.69;5091785;28;20484;-61
2023/08/28 09:31:39;;;;;;;4.40;2.50;;;;;;;15.00;100.00;93267.41;5083359;28;20400;-61
2023/08/28 09:34:06;;;;;;;4.25;2.45;;;;;;;15.01;100.00;93262.63;5091460;28;20051;-61
2023/08/28 09:36:37;;;;;;;5.47;2.60;;;;;;;15.12;100.00;93269.22;5091323;28;20040;-61
2023/08/28 09:39:09;;;;;;;3.65;2.10;;;;;;;15.60;100.00;93267.97;5085563;28;20551;-61
2023/08/28 09:41:40;;;;;;;4.43;2.30;;;;;;;15.37;100.00;93261.84;5090955;28;20439;-62
2023/08/28 09:44:08;;;;;;;3.93;2.10;;;;;;;15.46;100.00;93258.31;5091084;28;20048;-61
2023/08/28 09:46:38;;;;;;;4.10;2.30;;;;;;;14.90;100.00;93261.09;5091544;28;20036;-61
2023/08/28 09:49:05;;;;;;;4.38;2.08;;;;;;;15.11;100.00;93262.19;5073173;28;20052;-61
2023/08/28 09:51:43;;;;;;;4.18;2.20;;;;;;;14.51;100.00;93265.47;5090982;28;20043;-61
2023/08/28 09:54:12;;;;;;;3.83;2.35;;;;;;;14.55;100.00;93255.81;5090768;28;20096;-62
2023/08/28 09:56:39;;;;;;;3.63;2.50;;;;;;;14.69;100.00;93256.47;5091531;28;20040;-61
2023/08/28 09:59:07;;;;;;;4.25;2.20;;;;;;;15.01;100.00;93251.56;5072901;28;20047;-61
2023/08/28 10:01:35;;;;;;;3.53;2.33;;;;;;;14.65;100.00;93253.06;5090822;28;20036;-61
2023/08/28 10:04:10;;;;;;;3.80;2.50;;;;;;;14.27;100.00;93251.44;5091374;28;20054;-62
2023/08/28 10:06:51;;;;;;;4.70;2.80;;;;;;;14.51;100.00;93252.44;5103258;28;20897;-62
2023/08/28 10:09:19;;;;;;;3.40;2.20;;;;;;;14.61;100.00;93253.25;5110863;28;20047;-62
2023/08/28 10:11:50;;;;;;;5.75;2.50;;;;;;;14.20;100.00;93249.72;5092096;28;20400;-62
2023/08/28 10:14:17;;;;;;;4.72;2.30;;;;;;;14.63;100.00;93248.03;5090312;28;20040;-62
2023/08/28 10:16:52;;;;;;;4.07;2.38;;;;;;;14.24;100.00;93252.34;5090891;28;20046;-62
2023/08/28 10:19:34;;;;;;;4.18;2.53;;;;;;;14.39;100.00;93253.31;5072139;28;20071;-62
2023/08/28 10:22:03;;;;;;;4.90;2.90;;;;;;;14.18;100.00;93255.72;5090498;28;20089;-62
2023/08/28 10:24:31;;;;;;;5.25;2.72;;;;;;;14.64;100.00;93244.03;5090078;28;20104;-61
2023/08/28 10:27:00;;;;;;;5.43;2.60;;;;;;;14.89;100.00;93244.97;5090689;28;20392;-62
2023/08/28 10:29:27;;;;;;;4.45;2.75;;;;;;;14.86;100.00;93248.66;5090313;28;20055;-62
2023/08/28 10:31:55;;;;;;;5.38;2.80;;;;;;;14.56;100.00;93242.78;5090733;28;20055;-62
2023/08/28 10:34:24;;;;;;;4.50;2.90;;;;;;;14.58;100.00;93243.88;5089891;28;20032;-62
2023/08/28 10:36:53;;;;;;;5.57;2.90;;;;;;;14.25;100.00;93238.09;5090813;28;20050;-62
2023/08/28 10:39:24;;;;;;;5.25;2.63;;;;;;;14.51;100.00;93238.63;5090283;28;20037;-62
2023/08/28 10:41:51;;;;;;;4.68;3.13;;;;;;;14.79;100.00;93235.94;5090874;28;20326;-61
2023/08/28 10:44:18;;;;;;;6.40;3.33;;;;;;;15.08;100.00;93241.00;5072034;28;20047;-62
2023/08/28 10:46:47;;;;;;;5.07;3.00;;;;;;;14.92;100.00;93230.25;5090799;28;20050;-61
2023/08/28 10:49:16;;;;;;;4.25;2.72;;;;;;;15.31;100.00;93225.78;5089472;28;20043;-62
2023/08/28 10:51:44;;;;;;;5.90;3.17;;;;;;;15.34;100.00;93227.59;5072575;28;20101;-62
2023/08/28 10:54:11;;;;;;;5.07;2.60;;;;;;;15.55;100.00;93233.41;5089789;28;20435;-62
2023/08/28 10:56:39;;;;;;;4.07;2.78;;;;;;;15.35;100.00;93233.88;5089555;28;20071;-62
2023/08/28 10:59:26;;;;;;;5.47;2.67;;;;;;;15.03;100.00;93233.31;5089992;28;20052;-62
2023/08/28 11:01:55;;;;;;;4.22;2.95;;;;;;;15.46;100.00;93236.97;5088700;28;20048;-62
2023/08/28 11:04:33;;;;;;;7.32;2.97;;;;;;;15.44;100.00;93244.19;5088777;28;20077;-62
2023/08/28 11:07:00;;;;;;;5.25;3.30;;;;;;;15.12;100.00;93238.06;5090255;28;20066;-61
2023/08/28 11:09:27;;;;;;;5.60;3.88;;;;;;;14.85;100.00;93236.84;5071732;28;20400;-62
2023/08/28 11:12:00;;;;;;;5.07;3.20;;;;;;;15.56;100.00;93216.34;5087897;28;20051;-62
2023/08/28 11:14:41;;;;;;;6.03;3.72;;;;;;;15.40;100.00;93219.47;5070605;28;20040;-62
2023/08/28 11:17:11;;;;;;;6.47;3.60;;;;;;;15.58;100.00;93222.19;5089572;28;20534;-62
2023/08/28 11:19:56;;;;;;;6.60;3.95;;;;;;;15.55;100.00;93217.59;5089157;28;20111;-62
2023/08/28 11:22:35;;;;;;;6.15;3.20;;;;;;;15.66;100.00;93211.56;5088962;28;20036;-62
2023/08/28 11:25:10;;;;;;;5.90;3.13;;;;;;;15.73;100.00;93205.72;5090073;28;20036;-62
2023/08/28 11:27:37;;;;;;;5.55;4.30;;;;;;;15.82;100.00;93201.41;5087267;28;21602;-62
2023/08/28 11:30:05;;;;;;;6.00;3.40;;;;;;;16.02;100.00;93206.38;5089665;28;20078;-62